Time;durP1;ratioP1;P1;durP2;ratioP2;P2;SDS_P1;SDS_P2;PMS_P1;PMS_P2;Temp;Humidity;BMP_temperature;BMP_pressure;BME280_temperature;BME280_humidity;BME280_pressure;Samples;Min_cycle;Max_cycle;Signal;HPM_P1;HPM_P2
2023/02/03 00:00:07;;;;;;;;;;;;;;;5.90;nan;102182.31;6238181;23;19911;-83
2023/02/03 00:02:32;;;;;;;;;;;;;;;5.89;nan;102165.50;6238064;23;19911;-84
2023/02/03 00:04:58;;;;;;;;;;;;;;;5.89;nan;102160.16;6237494;23;19911;-82
2023/02/03 00:07:23;;;;;;;;;;;;;;;5.89;nan;102144.22;6237648;22;19994;-83
2023/02/03 00:09:49;;;;;;;;;;;;;;;5.92;nan;102135.06;6238350;23;19918;-82
2023/02/03 00:12:14;;;;;;;;;;;;;;;5.92;nan;102129.75;6239328;23;20107;-83
2023/02/03 00:14:39;;;;;;;;;;;;;;;5.90;nan;102121.13;6236061;23;19915;-83
2023/02/03 00:17:05;;;;;;;;;;;;;;;5.89;nan;102109.63;6238111;22;19915;-83
2023/02/03 00:19:30;;;;;;;;;;;;;;;5.89;nan;102106.97;6236715;23;19933;-82
2023/02/03 00:21:56;;;;;;;;;;;;;;;5.92;nan;102105.81;6237251;23;20597;-83
2023/02/03 00:24:22;;;;;;;;;;;;;;;5.94;nan;102087.84;6237841;23;19918;-83
2023/02/03 00:26:48;;;;;;;;;;;;;;;5.98;nan;102081.16;6234914;22;19918;-83
2023/02/03 00:29:14;;;;;;;;;;;;;;;5.99;nan;102072.16;6237306;23;19911;-83
2023/02/03 00:31:39;;;;;;;;;;;;;;;6.01;nan;102064.81;6237648;23;20494;-84
2023/02/03 00:34:05;;;;;;;;;;;;;;;6.04;nan;102051.94;6210129;23;19916;-82
2023/02/03 00:36:31;;;;;;;;;;;;;;;6.08;nan;102036.44;6237590;22;19908;-83
2023/02/03 00:38:56;;;;;;;;;;;;;;;6.08;nan;102020.47;6235324;23;20310;-83
2023/02/03 00:41:21;;;;;;;;;;;;;;;6.10;nan;102017.63;6237258;23;19911;-84
2023/02/03 00:43:47;;;;;;;;;;;;;;;6.15;nan;102013.41;6237825;23;20279;-83
2023/02/03 00:46:13;;;;;;;;;;;;;;;6.17;nan;102026.53;6238936;22;19908;-83
2023/02/03 00:48:38;;;;;;;;;;;;;;;6.18;nan;102036.16;6207983;23;19916;-83
2023/02/03 00:51:04;;;;;;;;;;;;;;;6.16;nan;102031.03;6237664;23;19927;-84
2023/02/03 00:53:29;;;;;;;;;;;;;;;6.20;nan;102010.16;6236976;23;20044;-83
2023/02/03 00:55:55;;;;;;;;;;;;;;;6.22;nan;102000.16;6236630;22;19969;-83
2023/02/03 00:58:20;;;;;;;;;;;;;;;6.19;nan;101992.56;6236395;23;19974;-85
2023/02/03 01:00:45;;;;;;;;;;;;;;;6.22;nan;101993.00;6238079;23;20110;-83
2023/02/03 01:03:11;;;;;;;;;;;;;;;6.28;nan;101994.06;6238378;23;19907;-84
2023/02/03 01:05:36;;;;;;;;;;;;;;;6.28;nan;101996.72;6236710;22;19935;-84
2023/02/03 01:08:02;;;;;;;;;;;;;;;6.30;nan;101982.25;6238264;23;19915;-83
2023/02/03 01:10:28;;;;;;;;;;;;;;;6.34;nan;101980.03;6238834;23;19907;-83
2023/02/03 01:12:53;;;;;;;;;;;;;;;6.36;nan;101960.19;6236776;23;19912;-83
2023/02/03 01:15:18;;;;;;;;;;;;;;;6.37;nan;101950.34;6238503;22;19994;-84
2023/02/03 01:17:44;;;;;;;;;;;;;;;6.42;nan;101949.78;6209695;23;20212;-83
2023/02/03 01:20:11;;;;;;;;;;;;;;;6.43;nan;101951.41;6240012;23;19914;-83
2023/02/03 01:22:36;;;;;;;;;;;;;;;6.46;nan;101948.38;6238163;23;19939;-83
2023/02/03 01:25:01;;;;;;;;;;;;;;;6.51;nan;101943.31;6236839;23;19911;-83
2023/02/03 01:27:27;;;;;;;;;;;;;;;6.54;nan;101941.09;6237511;22;19947;-83
2023/02/03 01:29:52;;;;;;;;;;;;;;;6.56;nan;101933.72;6239322;23;19914;-83
2023/02/03 01:32:17;;;;;;;;;;;;;;;6.58;nan;101923.69;6238769;23;20239;-84
2023/02/03 01:34:43;;;;;;;;;;;;;;;6.64;nan;101925.63;6237579;23;19915;-83
2023/02/03 01:37:08;;;;;;;;;;;;;;;6.68;nan;101918.06;6238573;22;19915;-83
2023/02/03 01:39:33;;;;;;;;;;;;;;;6.67;nan;101916.41;6237831;23;19907;-83
2023/02/03 01:41:59;;;;;;;;;;;;;;;6.71;nan;101908.84;6238069;23;20314;-83
2023/02/03 01:44:42;;;;;;;;;;;;;;;6.71;nan;101912.34;6236946;23;19908;-83
2023/02/03 01:47:14;;;;;;;;;;;;;;;6.71;nan;101908.84;6238087;22;19983;-83
2023/02/03 01:49:42;;;;;;;;;;;;;;;6.71;nan;101915.00;6235687;23;20291;-83
2023/02/03 01:52:07;;;;;;;;;;;;;;;6.70;nan;101916.03;6237954;23;19914;-83
2023/02/03 01:54:38;;;;;;;;;;;;;;;6.73;nan;101914.81;6236789;23;19912;-83
2023/02/03 01:57:09;;;;;;;;;;;;;;;6.76;nan;101907.25;6238497;22;19912;-83
2023/02/03 01:59:34;;;;;;;;;;;;;;;6.74;nan;101911.94;6236983;23;20354;-84
2023/02/03 02:02:01;;;;;;;;;;;;;;;6.74;nan;101895.97;6236639;23;19982;-84
2023/02/03 02:04:31;;;;;;;;;;;;;;;6.77;nan;101898.22;6236406;23;20358;-83
2023/02/03 02:06:57;;;;;;;;;;;;;;;6.81;nan;101888.81;6239102;22;19938;-84
2023/02/03 02:09:23;;;;;;;;;;;;;;;6.87;nan;101889.91;6239699;23;19915;-84
2023/02/03 02:11:48;;;;;;;;;;;;;;;6.92;nan;101880.31;6239386;23;19908;-84
2023/02/03 02:14:13;;;;;;;;;;;;;;;6.95;nan;101876.41;6239288;23;19915;-85
2023/02/03 02:16:39;;;;;;;;;;;;;;;6.96;nan;101873.56;6238911;22;19920;-85
2023/02/03 02:19:04;;;;;;;;;;;;;;;7.00;nan;101859.84;6237553;23;20225;-84
2023/02/03 02:21:42;;;;;;;;;;;;;;;7.04;nan;101847.78;6238502;23;19985;-84
2023/02/03 02:24:19;;;;;;;;;;;;;;;7.02;nan;101847.16;6238671;23;20041;-84
2023/02/03 02:26:51;;;;;;;;;;;;;;;7.02;nan;101834.66;6239119;22;19918;-85
2023/02/03 02:29:22;;;;;;;;;;;;;;;7.07;nan;101831.41;6239251;23;19915;-85
2023/02/03 02:32:14;;;;;;;;;;;;;;;7.04;nan;101823.81;6239427;23;19912;-85
2023/02/03 02:34:58;;;;;;;;;;;;;;;7.05;nan;101814.78;6204843;23;20407;-85
2023/02/03 02:37:23;;;;;;;;;;;;;;;7.03;nan;101811.50;6237613;22;19918;-84
2023/02/03 02:39:52;;;;;;;;;;;;;;;7.00;nan;101803.88;6239863;23;19911;-85
2023/02/03 02:42:36;;;;;;;;;;;;;;;6.97;nan;101807.75;6239128;23;20271;-84
2023/02/03 02:45:08;;;;;;;;;;;;;;;6.94;nan;101794.84;6239012;23;20164;-85
2023/02/03 02:47:34;;;;;;;;;;;;;;;6.91;nan;101776.59;6237525;22;19911;-85
2023/02/03 02:50:08;;;;;;;;;;;;;;;6.89;nan;101773.31;6239191;23;19912;-85
2023/02/03 02:52:35;;;;;;;;;;;;;;;6.88;nan;101767.16;6238349;23;19918;-85
2023/02/03 02:55:07;;;;;;;;;;;;;;;6.84;nan;101752.59;6212329;23;19970;-85
2023/02/03 02:57:34;;;;;;;;;;;;;;;6.78;nan;101750.72;6237144;22;19912;-85
2023/02/03 03:00:00;;;;;;;;;;;;;;;6.76;nan;101752.75;6236799;23;19926;-85
2023/02/03 03:02:33;;;;;;;;;;;;;;;6.74;nan;101746.00;6238411;23;19907;-85
2023/02/03 03:04:59;;;;;;;;;;;;;;;6.74;nan;101744.16;6238232;23;19918;-85
2023/02/03 03:07:26;;;;;;;;;;;;;;;6.79;nan;101751.53;6211609;23;19908;-84
2023/02/03 03:09:56;;;;;;;;;;;;;;;6.83;nan;101734.97;6238559;23;19908;-86
2023/02/03 03:12:23;;;;;;;;;;;;;;;6.85;nan;101718.78;6239065;23;19935;-86
2023/02/03 03:14:53;;;;;;;;;;;;;;;6.85;nan;101708.97;6238055;23;19977;-86
2023/02/03 03:17:26;;;;;;;;;;;;;;;6.86;nan;101707.94;6236695;22;20303;-85
2023/02/03 03:19:54;;;;;;;;;;;;;;;6.86;nan;101696.47;6234663;23;19921;-85
2023/02/03 03:22:21;;;;;;;;;;;;;;;6.88;nan;101687.25;6239467;22;19935;-85
2023/02/03 03:24:49;;;;;;;;;;;;;;;6.88;nan;101673.09;6239509;22;19912;-85
2023/02/03 03:27:21;;;;;;;;;;;;;;;6.88;nan;101670.44;6216818;22;19914;-85
2023/02/03 03:29:53;;;;;;;;;;;;;;;6.83;nan;101660.41;6208467;23;19908;-85
2023/02/03 03:32:18;;;;;;;;;;;;;;;6.87;nan;101648.31;6208804;23;19919;-85
2023/02/03 03:34:44;;;;;;;;;;;;;;;6.90;nan;101645.22;6208719;23;19916;-85
2023/02/03 03:37:15;;;;;;;;;;;;;;;6.93;nan;101634.16;6208078;23;20224;-85
2023/02/03 03:39:40;;;;;;;;;;;;;;;6.94;nan;101622.50;6207543;23;19927;-85
2023/02/03 03:42:11;;;;;;;;;;;;;;;6.95;nan;101618.78;6208507;23;19912;-85
2023/02/03 03:44:42;;;;;;;;;;;;;;;7.01;nan;101614.53;6207926;23;20039;-85
2023/02/03 03:47:13;;;;;;;;;;;;;;;7.05;nan;101614.94;6208530;23;19943;-86
2023/02/03 03:49:40;;;;;;;;;;;;;;;7.09;nan;101608.97;6206026;23;19916;-85
2023/02/03 03:52:08;;;;;;;;;;;;;;;7.17;nan;101594.63;6206696;23;19965;-85
2023/02/03 03:54:36;;;;;;;;;;;;;;;7.16;nan;101585.81;6207422;23;19916;-85
2023/02/03 03:57:05;;;;;;;;;;;;;;;7.19;nan;101577.44;6208137;23;19912;-85
2023/02/03 03:59:33;;;;;;;;;;;;;;;7.19;nan;101571.28;6206927;23;19908;-86
2023/02/03 04:02:03;;;;;;;;;;;;;;;7.16;nan;101567.16;6206224;23;19922;-86
2023/02/03 04:04:29;;;;;;;;;;;;;;;7.13;nan;101562.25;6208944;23;19908;-86
2023/02/03 04:06:55;;;;;;;;;;;;;;;7.19;nan;101541.97;6205479;23;19987;-86
2023/02/03 04:09:20;;;;;;;;;;;;;;;7.20;nan;101536.41;6207128;23;19946;-86
2023/02/03 04:12:01;;;;;;;;;;;;;;;7.23;nan;101536.00;6208308;23;19908;-86
2023/02/03 04:14:27;;;;;;;;;;;;;;;7.24;nan;101531.50;6208058;23;19915;-85
2023/02/03 04:16:52;;;;;;;;;;;;;;;7.22;nan;101534.38;6222327;23;20385;-85
2023/02/03 04:19:18;;;;;;;;;;;;;;;7.21;nan;101515.91;6235883;23;19915;-86
2023/02/03 04:21:43;;;;;;;;;;;;;;;7.21;nan;101516.75;6237868;23;19914;-85
2023/02/03 04:24:08;;;;;;;;;;;;;;;7.25;nan;101501.16;6210971;23;19911;-86
2023/02/03 04:26:34;;;;;;;;;;;;;;;7.22;nan;101493.56;6237669;22;19930;-87
2023/02/03 04:28:59;;;;;;;;;;;;;;;7.21;nan;101486.59;6238313;23;20621;-86
2023/02/03 04:31:24;;;;;;;;;;;;;;;7.19;nan;101478.81;6239422;23;20271;-86
2023/02/03 04:33:50;;;;;;;;;;;;;;;7.20;nan;101476.97;6236726;23;19973;-86
2023/02/03 04:36:15;;;;;;;;;;;;;;;7.23;nan;101458.72;6238154;22;19908;-85
2023/02/03 04:38:41;;;;;;;;;;;;;;;7.20;nan;101451.13;6236568;23;19918;-85
2023/02/03 04:41:06;;;;;;;;;;;;;;;7.26;nan;101436.16;6239107;23;20348;-85
2023/02/03 04:43:31;;;;;;;;;;;;;;;7.18;nan;101423.88;6238280;23;19931;-85
2023/02/03 04:45:58;;;;;;;;;;;;;;;7.19;nan;101428.19;6236785;22;19911;-86
2023/02/03 04:48:24;;;;;;;;;;;;;;;7.16;nan;101414.44;6236131;23;19931;-87
2023/02/03 04:50:49;;;;;;;;;;;;;;;7.22;nan;101401.09;6238241;23;19958;-86
2023/02/03 04:53:14;;;;;;;;;;;;;;;7.21;nan;101393.31;6239063;23;19923;-86
2023/02/03 04:55:40;;;;;;;;;;;;;;;7.27;nan;101382.63;6210713;22;20271;-85
2023/02/03 04:58:05;;;;;;;;;;;;;;;7.23;nan;101380.59;6238261;23;19951;-85
2023/02/03 05:00:31;;;;;;;;;;;;;;;7.18;nan;101378.56;6237881;23;19931;-86
2023/02/03 05:02:56;;;;;;;;;;;;;;;7.16;nan;101377.94;6238607;23;20005;-86
2023/02/03 05:05:21;;;;;;;;;;;;;;;7.24;nan;101377.72;6237971;23;20359;-85
2023/02/03 05:07:47;;;;;;;;;;;;;;;7.25;nan;101373.22;6237248;22;19911;-86
2023/02/03 05:10:12;;;;;;;;;;;;;;;7.26;nan;101366.84;6239793;23;20327;-85
2023/02/03 05:12:38;;;;;;;;;;;;;;;7.22;nan;101368.31;6238020;23;20358;-86
2023/02/03 05:15:03;;;;;;;;;;;;;;;7.23;nan;101365.44;6238510;23;19934;-86
2023/02/03 05:17:28;;;;;;;;;;;;;;;7.24;nan;101360.91;6237617;22;20159;-85
2023/02/03 05:19:54;;;;;;;;;;;;;;;7.25;nan;101359.88;6238114;23;19918;-86
2023/02/03 05:22:19;;;;;;;;;;;;;;;7.27;nan;101349.81;6238991;23;20147;-86
2023/02/03 05:24:45;;;;;;;;;;;;;;;7.21;nan;101350.69;6234837;23;19914;-86
2023/02/03 05:27:10;;;;;;;;;;;;;;;7.25;nan;101341.22;6235570;22;19907;-86
2023/02/03 05:29:36;;;;;;;;;;;;;;;7.27;nan;101331.16;6235788;23;19911;-85
2023/02/03 05:32:01;;;;;;;;;;;;;;;7.31;nan;101324.38;6236191;23;19911;-85
2023/02/03 05:34:26;;;;;;;;;;;;;;;7.26;nan;101302.88;6236522;23;19912;-86
2023/02/03 05:36:52;;;;;;;;;;;;;;;7.24;nan;101295.09;6236549;22;19919;-85
2023/02/03 05:39:17;;;;;;;;;;;;;;;7.26;nan;101292.22;6209556;23;20296;-86
2023/02/03 05:41:52;;;;;;;;;;;;;;;7.31;nan;101287.06;6237783;23;19918;-86
2023/02/03 05:44:20;;;;;;;;;;;;;;;7.30;nan;101264.09;6235908;23;19908;-86
2023/02/03 05:46:46;;;;;;;;;;;;;;;7.34;nan;101264.47;6234281;22;20026;-86
2023/02/03 05:49:12;;;;;;;;;;;;;;;7.37;nan;101258.75;6233327;23;19994;-86
2023/02/03 05:51:38;;;;;;;;;;;;;;;7.36;nan;101244.59;6235380;23;19942;-86
2023/02/03 05:54:04;;;;;;;;;;;;;;;7.37;nan;101248.09;6234723;23;20341;-86
2023/02/03 05:56:29;;;;;;;;;;;;;;;7.36;nan;101241.94;6236487;22;19999;-86
2023/02/03 05:58:54;;;;;;;;;;;;;;;7.35;nan;101240.28;6237258;23;19995;-86
2023/02/03 06:01:20;;;;;;;;;;;;;;;7.39;nan;101230.84;6240742;23;20086;-85
2023/02/03 06:03:45;;;;;;;;;;;;;;;7.43;nan;101218.72;6212625;23;19982;-86
2023/02/03 06:06:11;;;;;;;;;;;;;;;7.46;nan;101218.28;6237579;22;19918;-87
2023/02/03 06:08:36;;;;;;;;;;;;;;;7.51;nan;101205.09;6212736;23;19911;-87
2023/02/03 06:11:02;;;;;;;;;;;;;;;7.50;nan;101198.13;6239903;23;19947;-87
2023/02/03 06:13:27;;;;;;;;;;;;;;;7.58;nan;101199.72;6240698;23;19907;-87
2023/02/03 06:15:52;;;;;;;;;;;;;;;7.69;nan;101187.53;6237132;22;19936;-86
2023/02/03 06:18:18;;;;;;;;;;;;;;;7.72;nan;101185.25;6239490;23;20300;-86
2023/02/03 06:20:43;;;;;;;;;;;;;;;7.75;nan;101179.50;6240438;23;19908;-86
2023/02/03 06:23:09;;;;;;;;;;;;;;;7.84;nan;101177.34;6240728;23;20279;-87
2023/02/03 06:25:34;;;;;;;;;;;;;;;7.89;nan;101172.16;6239170;22;20291;-86
2023/02/03 06:27:59;;;;;;;;;;;;;;;7.92;nan;101163.75;6240277;23;20216;-86
2023/02/03 06:30:25;;;;;;;;;;;;;;;7.96;nan;101151.59;6240686;23;19908;-86
2023/02/03 06:32:50;;;;;;;;;;;;;;;8.02;nan;101145.34;6239150;23;19907;-87
2023/02/03 06:35:16;;;;;;;;;;;;;;;8.14;nan;101145.44;6239711;23;19943;-86
2023/02/03 06:37:41;;;;;;;;;;;;;;;8.18;nan;101138.63;6239293;22;19911;-87
2023/02/03 06:40:07;;;;;;;;;;;;;;;8.28;nan;101143.44;6214054;23;19911;-86
2023/02/03 06:42:32;;;;;;;;;;;;;;;8.36;nan;101122.63;6241052;23;20090;-87
2023/02/03 06:44:58;;;;;;;;;;;;;;;8.41;nan;101119.28;6240798;23;19914;-87
2023/02/03 06:47:23;;;;;;;;;;;;;;;8.46;nan;101111.44;6240090;22;20213;-87
2023/02/03 06:49:48;;;;;;;;;;;;;;;8.50;nan;101103.78;6240921;23;19911;-86
2023/02/03 06:52:14;;;;;;;;;;;;;;;8.56;nan;101098.34;6239209;23;19982;-87
2023/02/03 06:54:40;;;;;;;;;;;;;;;8.59;nan;101086.38;6240818;23;20312;-86
2023/02/03 06:57:05;;;;;;;;;;;;;;;8.59;nan;101079.19;6240164;22;19926;-86
2023/02/03 06:59:30;;;;;;;;;;;;;;;8.63;nan;101061.69;6239747;23;19919;-87
2023/02/03 07:01:56;;;;;;;;;;;;;;;8.70;nan;101057.03;6239642;23;19908;-86
2023/02/03 07:04:21;;;;;;;;;;;;;;;8.78;nan;101054.03;6240012;23;19982;-86
2023/02/03 07:06:47;;;;;;;;;;;;;;;8.84;nan;101038.97;6239644;22;19907;-87
2023/02/03 07:09:12;;;;;;;;;;;;;;;8.87;nan;101043.03;6239787;23;20238;-87
2023/02/03 07:11:38;;;;;;;;;;;;;;;8.95;nan;101027.47;6239949;23;19958;-86
2023/02/03 07:14:03;;;;;;;;;;;;;;;8.98;nan;101021.69;6212257;23;20148;-86
2023/02/03 07:16:30;;;;;;;;;;;;;;;9.04;nan;101015.41;6238949;22;19943;-86
2023/02/03 07:18:55;;;;;;;;;;;;;;;9.09;nan;101022.72;6231468;23;19907;-86
2023/02/03 07:21:20;;;;;;;;;;;;;;;9.13;nan;101004.34;6237366;23;19919;-86
2023/02/03 07:23:47;;;;;;;;;;;;;;;9.20;nan;100997.06;6236510;23;19915;-86
2023/02/03 07:26:13;;;;;;;;;;;;;;;9.26;nan;100986.22;6238406;22;20323;-86
2023/02/03 07:28:38;;;;;;;;;;;;;;;9.33;nan;100980.75;6238989;23;19918;-86
2023/02/03 07:31:04;;;;;;;;;;;;;;;9.37;nan;100974.72;6238803;23;20184;-85
2023/02/03 07:33:29;;;;;;;;;;;;;;;9.39;nan;100966.47;6237555;23;20228;-86
2023/02/03 07:35:56;;;;;;;;;;;;;;;9.50;nan;100964.81;6237963;22;20393;-86
2023/02/03 07:38:21;;;;;;;;;;;;;;;9.53;nan;100970.53;6237691;23;19915;-86
2023/02/03 07:40:49;;;;;;;;;;;;;;;9.61;nan;100963.97;6238159;23;19911;-86
2023/02/03 07:43:14;;;;;;;;;;;;;;;9.71;nan;100958.84;6211266;23;19919;-87
2023/02/03 07:45:40;;;;;;;;;;;;;;;9.78;nan;100959.50;6238519;22;19908;-87
2023/02/03 07:48:05;;;;;;;;;;;;;;;9.78;nan;100950.69;6234956;23;19969;-87
2023/02/03 07:50:34;;;;;;;;;;;;;;;9.88;nan;100941.00;6237803;23;20358;-86
2023/02/03 07:53:00;;;;;;;;;;;;;;;9.89;nan;100936.44;6233989;23;20302;-86
2023/02/03 07:55:25;;;;;;;;;;;;;;;9.96;nan;100929.09;6208743;23;19954;-86
2023/02/03 07:57:54;;;;;;;;;;;;;;;10.00;nan;100919.50;6234807;22;20388;-86
2023/02/03 08:00:19;;;;;;;;;;;;;;;10.06;nan;100912.41;6208701;23;19916;-86
2023/02/03 08:02:45;;;;;;;;;;;;;;;10.13;nan;100905.03;6235168;23;20213;-86
2023/02/03 08:05:11;;;;;;;;;;;;;;;10.21;nan;100891.25;6234301;23;19911;-87
2023/02/03 08:07:37;;;;;;;;;;;;;;;10.31;nan;100888.78;6235879;22;19907;-87
2023/02/03 08:10:03;;;;;;;;;;;;;;;10.39;nan;100880.31;6234861;23;19919;-86
2023/02/03 08:12:28;;;;;;;;;;;;;;;10.53;nan;100875.44;6235034;23;19939;-86
2023/02/03 08:14:54;;;;;;;;;;;;;;;10.65;nan;100868.16;6232463;23;19916;-87
2023/02/03 08:17:19;;;;;;;;;;;;;;;10.78;nan;100869.69;6233932;22;19915;-86
2023/02/03 08:19:45;;;;;;;;;;;;;;;10.87;nan;100860.97;6207217;23;19961;-87
2023/02/03 08:22:15;;;;;;;;;;;;;;;10.95;nan;100853.53;6235862;23;20306;-88
2023/02/03 08:24:44;;;;;;;;;;;;;;;11.06;nan;100848.06;6236600;23;20497;-87
2023/02/03 08:27:20;;;;;;;;;;;;;;;11.18;nan;100835.38;6235601;22;20379;-87
2023/02/03 08:29:46;;;;;;;;;;;;;;;11.26;nan;100834.09;6236919;23;20462;-86
2023/02/03 08:32:12;;;;;;;;;;;;;;;11.31;nan;100820.78;6235653;23;19935;-86
2023/02/03 08:34:38;;;;;;;;;;;;;;;11.42;nan;100813.63;6235645;23;20336;-86
2023/02/03 08:37:03;;;;;;;;;;;;;;;11.53;nan;100801.94;6234722;22;19918;-86
2023/02/03 08:39:29;;;;;;;;;;;;;;;11.59;nan;100802.81;6235093;23;20231;-86
2023/02/03 08:41:54;;;;;;;;;;;;;;;11.66;nan;100806.91;6234972;23;19912;-87
2023/02/03 08:44:20;;;;;;;;;;;;;;;11.76;nan;100806.19;6235879;23;19915;-87
2023/02/03 08:46:49;;;;;;;;;;;;;;;11.78;nan;100790.66;6235277;22;20536;-87
2023/02/03 08:49:14;;;;;;;;;;;;;;;11.82;nan;100777.53;6233680;23;19918;-87
2023/02/03 08:51:40;;;;;;;;;;;;;;;11.95;nan;100774.44;6206751;23;20392;-86
2023/02/03 08:54:05;;;;;;;;;;;;;;;12.01;nan;100762.66;6234743;23;19983;-86
2023/02/03 08:56:32;;;;;;;;;;;;;;;12.02;nan;100746.28;6235966;22;19935;-86
2023/02/03 08:59:00;;;;;;;;;;;;;;;12.09;nan;100741.53;6235140;23;19911;-87
2023/02/03 09:01:26;;;;;;;;;;;;;;;12.17;nan;100729.50;6236069;23;20389;-87
2023/02/03 09:03:51;;;;;;;;;;;;;;;12.22;nan;100728.72;6234968;23;19937;-86
2023/02/03 09:06:16;;;;;;;;;;;;;;;12.28;nan;100720.44;6235838;22;19940;-86
2023/02/03 09:08:42;;;;;;;;;;;;;;;12.33;nan;100716.97;6236111;23;19907;-87
2023/02/03 09:11:09;;;;;;;;;;;;;;;12.37;nan;100715.38;6235345;23;20247;-87
2023/02/03 09:13:34;;;;;;;;;;;;;;;12.48;nan;100708.19;6233983;23;19911;-87
2023/02/03 09:16:00;;;;;;;;;;;;;;;12.50;nan;100714.09;6237701;22;19926;-87
2023/02/03 09:18:25;;;;;;;;;;;;;;;12.54;nan;100712.50;6211779;23;19912;-87
2023/02/03 09:20:51;;;;;;;;;;;;;;;12.62;nan;100701.25;6238011;23;19946;-87
2023/02/03 09:23:16;;;;;;;;;;;;;;;12.67;nan;100698.59;6238834;23;20287;-88
2023/02/03 09:25:42;;;;;;;;;;;;;;;12.69;nan;100701.81;6238027;22;19918;-88
2023/02/03 09:28:07;;;;;;;;;;;;;;;12.78;nan;100702.13;6236574;23;19912;-88
2023/02/03 09:30:32;;;;;;;;;;;;;;;12.83;nan;100707.53;6238456;23;19914;-87
2023/02/03 09:32:58;;;;;;;;;;;;;;;12.84;nan;100688.44;6237954;23;19912;-87
2023/02/03 09:35:25;;;;;;;;;;;;;;;12.87;nan;100693.28;6238505;23;20256;-87
2023/02/03 09:37:51;;;;;;;;;;;;;;;12.88;nan;100683.31;6237374;22;19919;-87
2023/02/03 09:40:19;;;;;;;;;;;;;;;12.93;nan;100686.06;6237834;23;19911;-87
2023/02/03 09:43:03;;;;;;;;;;;;;;;12.95;nan;100684.72;6235701;23;19911;-87
2023/02/03 09:45:29;;;;;;;;;;;;;;;13.01;nan;100689.03;6232958;23;20287;-88
2023/02/03 09:48:11;;;;;;;;;;;;;;;13.02;nan;100690.63;6234218;22;19939;-88
2023/02/03 09:53:44;;;;;;;;;;;;;;;13.13;nan;100671.84;6237141;23;20401;-89
2023/02/03 09:56:21;;;;;;;;;;;;;;;13.15;nan;100689.31;6237442;22;19947;-88
2023/02/03 09:58:46;;;;;;;;;;;;;;;13.16;nan;100674.81;6238692;23;19911;-88
2023/02/03 10:01:12;;;;;;;;;;;;;;;13.20;nan;100675.09;6239049;23;20489;-89
2023/02/03 10:03:41;;;;;;;;;;;;;;;13.32;nan;100670.28;6211681;23;19918;-87
2023/02/03 10:06:09;;;;;;;;;;;;;;;13.29;nan;100673.50;6237644;22;19911;-87
2023/02/03 10:08:38;;;;;;;;;;;;;;;13.30;nan;100667.84;6237975;23;19912;-86
2023/02/03 10:11:12;;;;;;;;;;;;;;;13.39;nan;100667.31;6238396;23;19931;-87
2023/02/03 10:13:52;;;;;;;;;;;;;;;13.38;nan;100674.56;6236188;23;19975;-87
2023/02/03 10:16:20;;;;;;;;;;;;;;;13.48;nan;100687.25;6238388;22;19915;-88
2023/02/03 10:18:52;;;;;;;;;;;;;;;13.41;nan;100698.25;6238177;23;19907;-87
2023/02/03 10:21:30;;;;;;;;;;;;;;;13.52;nan;100691.81;6238392;23;19919;-88
2023/02/03 10:23:57;;;;;;;;;;;;;;;13.50;nan;100675.13;6238188;23;19908;-87
2023/02/03 10:26:25;;;;;;;;;;;;;;;13.44;nan;100691.53;6238816;22;19907;-86
2023/02/03 10:32:15;;;;;;;;;;;;;;;13.50;nan;100669.75;6113550;23;19947;-89
2023/02/03 10:37:49;;;;;;;;;;;;;;;13.51;nan;100681.31;6226949;23;20418;-88
2023/02/03 10:40:15;;;;;;;;;;;;;;;13.65;nan;100678.91;6237403;23;19912;-87
2023/02/03 10:45:30;;;;;;;;;;;;;;;13.56;nan;100692.88;6237717;23;20330;-89
2023/02/03 10:47:56;;;;;;;;;;;;;;;13.51;nan;100692.91;6234881;22;19987;-89
2023/02/03 10:50:30;;;;;;;;;;;;;;;13.66;nan;100704.75;6238980;23;19912;-87
2023/02/03 10:53:16;;;;;;;;;;;;;;;13.65;nan;100698.56;6235352;23;19989;-88
2023/02/03 10:55:44;;;;;;;;;;;;;;;13.64;nan;100701.50;6235661;22;19922;-87
2023/02/03 10:58:24;;;;;;;;;;;;;;;13.71;nan;100691.28;6236258;23;20119;-88
2023/02/03 11:00:55;;;;;;;;;;;;;;;13.73;nan;100687.22;6237235;23;20159;-88
2023/02/03 11:03:24;;;;;;;;;;;;;;;13.84;nan;100677.28;6237141;23;20331;-87
2023/02/03 11:06:09;;;;;;;;;;;;;;;13.84;nan;100683.47;6236994;22;19916;-89
2023/02/03 11:08:39;;;;;;;;;;;;;;;13.76;nan;100677.81;6236484;23;19919;-88
2023/02/03 11:11:06;;;;;;;;;;;;;;;13.78;nan;100695.31;6236439;23;20201;-87
2023/02/03 11:13:35;;;;;;;;;;;;;;;13.72;nan;100692.88;6236402;23;20524;-89
2023/02/03 11:16:02;;;;;;;;;;;;;;;13.80;nan;100673.47;6237729;22;19920;-88
2023/02/03 11:18:50;;;;;;;;;;;;;;;13.87;nan;100693.69;6238470;23;19908;-89
2023/02/03 11:21:18;;;;;;;;;;;;;;;13.89;nan;100685.34;6238722;23;19911;-88
2023/02/03 11:23:46;;;;;;;;;;;;;;;13.93;nan;100683.72;6239230;23;19995;-89
2023/02/03 11:26:13;;;;;;;;;;;;;;;13.91;nan;100693.94;6239731;22;19912;-89
2023/02/03 11:28:44;;;;;;;;;;;;;;;14.07;nan;100706.31;6211129;23;19944;-88
2023/02/03 11:31:17;;;;;;;;;;;;;;;14.06;nan;100699.31;6238151;23;20019;-89
2023/02/03 11:33:46;;;;;;;;;;;;;;;14.24;nan;100705.22;6237067;23;19911;-88
2023/02/03 11:36:12;;;;;;;;;;;;;;;14.25;nan;100712.22;6238245;22;19935;-90
2023/02/03 11:38:41;;;;;;;;;;;;;;;14.38;nan;100698.19;6236919;23;20435;-88
2023/02/03 11:41:13;;;;;;;;;;;;;;;14.49;nan;100705.16;6209898;23;19917;-88
2023/02/03 11:43:38;;;;;;;;;;;;;;;14.45;nan;100720.28;6238871;23;19911;-88
2023/02/03 11:46:07;;;;;;;;;;;;;;;14.64;nan;100702.41;6238348;22;19973;-87
2023/02/03 11:48:36;;;;;;;;;;;;;;;14.60;nan;100708.66;6237164;23;20494;-87
2023/02/03 11:51:14;;;;;;;;;;;;;;;14.52;nan;100713.50;6236935;23;19966;-88
2023/02/03 11:53:55;;;;;;;;;;;;;;;14.51;nan;100711.09;6236750;23;19938;-88
2023/02/03 11:56:30;;;;;;;;;;;;;;;14.53;nan;100708.91;6236542;22;19931;-88
2023/02/03 11:58:59;;;;;;;;;;;;;;;14.46;nan;100724.59;6237952;23;19991;-88
2023/02/03 12:01:43;;;;;;;;;;;;;;;14.38;nan;100723.25;6243309;23;19935;-87
2023/02/03 12:04:09;;;;;;;;;;;;;;;14.30;nan;100726.47;6239838;23;19912;-88
2023/02/03 12:06:48;;;;;;;;;;;;;;;14.37;nan;100713.53;6237551;22;19969;-88
2023/02/03 12:09:25;;;;;;;;;;;;;;;14.33;nan;100707.06;6237789;23;19931;-87
2023/02/03 12:12:01;;;;;;;;;;;;;;;14.33;nan;100725.13;6238226;23;19907;-86
2023/02/03 12:14:27;;;;;;;;;;;;;;;14.39;nan;100724.03;6233587;23;20110;-86
2023/02/03 12:16:55;;;;;;;;;;;;;;;14.51;nan;100706.50;6239488;22;19916;-86
2023/02/03 12:19:41;;;;;;;;;;;;;;;14.53;nan;100717.00;6238960;23;19914;-87
2023/02/03 12:22:43;;;;;;;;;;;;;;;14.54;nan;100715.13;6239638;23;20236;-87
2023/02/03 12:25:27;;;;;;;;;;;;;;;14.41;nan;100716.50;6175106;23;19938;-86
2023/02/03 12:28:14;;;;;;;;;;;;;;;14.39;nan;100724.03;6238265;22;19907;-86
2023/02/03 12:30:44;;;;;;;;;;;;;;;14.30;nan;100721.09;6239373;23;19924;-88
2023/02/03 12:33:12;;;;;;;;;;;;;;;14.31;nan;100721.91;6237968;23;19915;-87
2023/02/03 12:35:47;;;;;;;;;;;;;;;14.29;nan;100724.06;6236496;22;19923;-87
2023/02/03 12:38:31;;;;;;;;;;;;;;;14.18;nan;100720.56;6236663;23;20315;-89
2023/02/03 12:41:04;;;;;;;;;;;;;;;14.13;nan;100723.28;6239462;23;20255;-87
2023/02/03 12:43:36;;;;;;;;;;;;;;;14.10;nan;100737.28;6237146;23;20358;-88
2023/02/03 12:46:16;;;;;;;;;;;;;;;13.88;nan;100735.69;6237393;22;19956;-89
2023/02/03 12:49:00;;;;;;;;;;;;;;;13.79;nan;100747.28;6236342;23;20541;-90
2023/02/03 12:51:32;;;;;;;;;;;;;;;13.74;nan;100744.59;6237787;23;19915;-88
2023/02/03 12:54:01;;;;;;;;;;;;;;;13.72;nan;100739.47;6236762;23;19915;-87
2023/02/03 12:56:33;;;;;;;;;;;;;;;13.75;nan;100743.50;6235992;22;20299;-90
2023/02/03 12:59:21;;;;;;;;;;;;;;;13.73;nan;100740.28;6237925;23;19911;-88
2023/02/03 13:01:56;;;;;;;;;;;;;;;13.69;nan;100744.59;6219521;23;19911;-88
2023/02/03 13:04:40;;;;;;;;;;;;;;;13.71;nan;100734.34;6236957;23;20209;-87
2023/02/03 13:07:11;;;;;;;;;;;;;;;13.71;nan;100740.56;6237108;22;19927;-90
2023/02/03 13:09:43;;;;;;;;;;;;;;;13.81;nan;100739.72;6237195;23;20380;-88
2023/02/03 13:12:11;;;;;;;;;;;;;;;13.80;nan;100749.69;6238513;23;20214;-88
2023/02/03 13:14:42;;;;;;;;;;;;;;;13.77;nan;100754.81;6234587;23;19916;-87
2023/02/03 13:17:13;;;;;;;;;;;;;;;13.77;nan;100744.03;6236478;22;19919;-86
2023/02/03 13:19:53;;;;;;;;;;;;;;;13.69;nan;100750.78;6237120;23;19954;-88